sensor_id;sensor_type;location;lat;lon;timestamp;P1;durP1;ratioP1;P2;durP2;ratioP2
43540;SDS011;29549;40.386;-3.710;2023-02-10T00:01:46;8.98;;;4.65;;
43540;SDS011;29549;40.386;-3.710;2023-02-10T00:11:47;9.93;;;4.82;;
43540;SDS011;29549;40.386;-3.710;2023-02-10T00:22:09;11.77;;;6.00;;
43540;SDS011;29549;40.386;-3.710;2023-02-10T00:32:20;10.05;;;5.55;;
43540;SDS011;29549;40.386;-3.710;2023-02-10T00:42:42;8.30;;;5.07;;
43540;SDS011;29549;40.386;-3.710;2023-02-10T00:53:03;10.15;;;5.45;;
43540;SDS011;29549;40.386;-3.710;2023-02-10T01:03:15;9.40;;;5.38;;
43540;SDS011;29549;40.386;-3.710;2023-02-10T01:13:20;10.57;;;5.15;;
43540;SDS011;29549;40.386;-3.710;2023-02-10T01:23:23;8.98;;;5.57;;
43540;SDS011;29549;40.386;-3.710;2023-02-10T01:33:26;6.38;;;4.32;;
43540;SDS011;29549;40.386;-3.710;2023-02-10T01:43:28;7.72;;;4.85;;
43540;SDS011;29549;40.386;-3.710;2023-02-10T01:53:30;7.35;;;4.00;;
43540;SDS011;29549;40.386;-3.710;2023-02-10T02:03:33;9.63;;;3.78;;
43540;SDS011;29549;40.386;-3.710;2023-02-10T02:13:42;11.15;;;4.05;;
43540;SDS011;29549;40.386;-3.710;2023-02-10T02:44:21;7.70;;;3.97;;
43540;SDS011;29549;40.386;-3.710;2023-02-10T02:54:27;8.85;;;3.80;;
43540;SDS011;29549;40.386;-3.710;2023-02-10T03:04:47;8.68;;;3.95;;
43540;SDS011;29549;40.386;-3.710;2023-02-10T03:14:51;5.60;;;3.38;;
43540;SDS011;29549;40.386;-3.710;2023-02-10T03:24:54;9.80;;;3.97;;
43540;SDS011;29549;40.386;-3.710;2023-02-10T03:34:58;5.38;;;3.60;;
43540;SDS011;29549;40.386;-3.710;2023-02-10T03:45:04;7.70;;;3.70;;
43540;SDS011;29549;40.386;-3.710;2023-02-10T03:55:08;5.68;;;3.28;;
43540;SDS011;29549;40.386;-3.710;2023-02-10T04:05:10;7.70;;;4.00;;
43540;SDS011;29549;40.386;-3.710;2023-02-10T04:15:12;8.48;;;4.10;;
43540;SDS011;29549;40.386;-3.710;2023-02-10T04:25:15;7.30;;;4.60;;
43540;SDS011;29549;40.386;-3.710;2023-02-10T04:35:17;9.77;;;5.20;;
43540;SDS011;29549;40.386;-3.710;2023-02-10T04:45:20;10.18;;;4.50;;
43540;SDS011;29549;40.386;-3.710;2023-02-10T04:55:22;7.03;;;3.67;;
43540;SDS011;29549;40.386;-3.710;2023-02-10T05:05:24;11.25;;;4.60;;
43540;SDS011;29549;40.386;-3.710;2023-02-10T05:15:26;7.38;;;4.57;;
43540;SDS011;29549;40.386;-3.710;2023-02-10T05:25:28;8.05;;;4.40;;
43540;SDS011;29549;40.386;-3.710;2023-02-10T05:35:30;7.15;;;3.95;;
43540;SDS011;29549;40.386;-3.710;2023-02-10T05:45:32;8.13;;;3.90;;
43540;SDS011;29549;40.386;-3.710;2023-02-10T05:55:33;6.72;;;4.00;;
43540;SDS011;29549;40.386;-3.710;2023-02-10T06:05:35;8.07;;;4.22;;
43540;SDS011;29549;40.386;-3.710;2023-02-10T06:15:37;6.13;;;3.83;;
43540;SDS011;29549;40.386;-3.710;2023-02-10T06:25:39;8.63;;;4.97;;
43540;SDS011;29549;40.386;-3.710;2023-02-10T06:35:40;10.85;;;5.30;;
43540;SDS011;29549;40.386;-3.710;2023-02-10T06:45:42;12.88;;;5.45;;
43540;SDS011;29549;40.386;-3.710;2023-02-10T06:55:44;11.00;;;5.05;;
43540;SDS011;29549;40.386;-3.710;2023-02-10T07:05:46;7.80;;;4.90;;
43540;SDS011;29549;40.386;-3.710;2023-02-10T07:15:48;9.93;;;5.13;;
43540;SDS011;29549;40.386;-3.710;2023-02-10T07:25:50;9.30;;;5.53;;
43540;SDS011;29549;40.386;-3.710;2023-02-10T07:35:52;12.13;;;6.38;;
43540;SDS011;29549;40.386;-3.710;2023-02-10T07:45:54;10.30;;;6.13;;
43540;SDS011;29549;40.386;-3.710;2023-02-10T07:55:57;11.40;;;6.32;;
43540;SDS011;29549;40.386;-3.710;2023-02-10T08:06:01;18.80;;;7.97;;
43540;SDS011;29549;40.386;-3.710;2023-02-10T08:16:04;10.45;;;6.38;;
43540;SDS011;29549;40.386;-3.710;2023-02-10T08:26:08;14.05;;;7.90;;
43540;SDS011;29549;40.386;-3.710;2023-02-10T08:36:13;13.95;;;6.82;;
43540;SDS011;29549;40.386;-3.710;2023-02-10T08:46:18;10.32;;;5.78;;
43540;SDS011;29549;40.386;-3.710;2023-02-10T08:56:20;10.32;;;5.28;;
43540;SDS011;29549;40.386;-3.710;2023-02-10T09:06:27;10.40;;;5.40;;
43540;SDS011;29549;40.386;-3.710;2023-02-10T09:16:32;10.70;;;5.45;;
43540;SDS011;29549;40.386;-3.710;2023-02-10T09:26:35;9.57;;;6.10;;
43540;SDS011;29549;40.386;-3.710;2023-02-10T09:36:37;8.85;;;5.40;;
43540;SDS011;29549;40.386;-3.710;2023-02-10T09:57:03;13.88;;;6.22;;
43540;SDS011;29549;40.386;-3.710;2023-02-10T10:07:25;14.88;;;5.97;;
43540;SDS011;29549;40.386;-3.710;2023-02-10T10:17:41;7.33;;;5.33;;
43540;SDS011;29549;40.386;-3.710;2023-02-10T10:38:24;8.45;;;5.28;;
43540;SDS011;29549;40.386;-3.710;2023-02-10T10:48:29;8.02;;;3.65;;
43540;SDS011;29549;40.386;-3.710;2023-02-10T10:58:36;6.10;;;4.10;;
43540;SDS011;29549;40.386;-3.710;2023-02-10T11:08:43;6.38;;;3.83;;
43540;SDS011;29549;40.386;-3.710;2023-02-10T11:18:57;9.57;;;4.13;;
43540;SDS011;29549;40.386;-3.710;2023-02-10T11:29:08;7.88;;;3.78;;
43540;SDS011;29549;40.386;-3.710;2023-02-10T11:49:22;7.30;;;4.32;;
43540;SDS011;29549;40.386;-3.710;2023-02-10T11:59:27;6.95;;;3.97;;
43540;SDS011;29549;40.386;-3.710;2023-02-10T12:20:12;4.55;;;3.63;;
43540;SDS011;29549;40.386;-3.710;2023-02-10T12:41:17;6.80;;;3.65;;
43540;SDS011;29549;40.386;-3.710;2023-02-10T12:51:32;4.97;;;2.65;;
43540;SDS011;29549;40.386;-3.710;2023-02-10T13:01:58;6.07;;;2.80;;
43540;SDS011;29549;40.386;-3.710;2023-02-10T13:32:33;7.72;;;3.50;;
43540;SDS011;29549;40.386;-3.710;2023-02-10T13:43:03;10.13;;;3.55;;
43540;SDS011;29549;40.386;-3.710;2023-02-10T13:53:25;7.18;;;3.00;;
43540;SDS011;29549;40.386;-3.710;2023-02-10T14:03:31;7.07;;;2.92;;
43540;SDS011;29549;40.386;-3.710;2023-02-10T14:13:36;6.45;;;3.45;;
43540;SDS011;29549;40.386;-3.710;2023-02-10T14:23:41;6.15;;;3.53;;
43540;SDS011;29549;40.386;-3.710;2023-02-10T14:34:01;4.93;;;2.72;;
43540;SDS011;29549;40.386;-3.710;2023-02-10T14:44:13;3.22;;;2.60;;
43540;SDS011;29549;40.386;-3.710;2023-02-10T14:54:25;4.10;;;2.63;;
43540;SDS011;29549;40.386;-3.710;2023-02-10T15:04:27;4.78;;;2.70;;
43540;SDS011;29549;40.386;-3.710;2023-02-10T15:14:31;5.35;;;2.30;;
43540;SDS011;29549;40.386;-3.710;2023-02-10T15:24:36;3.65;;;2.25;;
43540;SDS011;29549;40.386;-3.710;2023-02-10T15:34:38;4.97;;;2.47;;
43540;SDS011;29549;40.386;-3.710;2023-02-10T15:44:40;5.55;;;3.40;;
43540;SDS011;29549;40.386;-3.710;2023-02-10T15:54:43;5.32;;;2.25;;
43540;SDS011;29549;40.386;-3.710;2023-02-10T16:04:45;3.55;;;2.08;;
43540;SDS011;29549;40.386;-3.710;2023-02-10T16:14:47;7.40;;;2.83;;
43540;SDS011;29549;40.386;-3.710;2023-02-10T16:34:54;5.13;;;2.97;;
43540;SDS011;29549;40.386;-3.710;2023-02-10T16:44:56;7.90;;;2.67;;
43540;SDS011;29549;40.386;-3.710;2023-02-10T16:54:58;5.07;;;2.80;;
43540;SDS011;29549;40.386;-3.710;2023-02-10T17:05:00;10.65;;;2.75;;
43540;SDS011;29549;40.386;-3.710;2023-02-10T17:15:01;4.68;;;2.53;;
43540;SDS011;29549;40.386;-3.710;2023-02-10T17:25:04;4.82;;;2.25;;
43540;SDS011;29549;40.386;-3.710;2023-02-10T17:35:06;6.25;;;3.03;;
43540;SDS011;29549;40.386;-3.710;2023-02-10T17:45:09;6.95;;;2.63;;
43540;SDS011;29549;40.386;-3.710;2023-02-10T17:55:12;6.85;;;2.70;;
43540;SDS011;29549;40.386;-3.710;2023-02-10T18:05:15;6.15;;;4.22;;
43540;SDS011;29549;40.386;-3.710;2023-02-10T18:15:17;9.13;;;4.80;;
43540;SDS011;29549;40.386;-3.710;2023-02-10T18:25:20;5.85;;;3.65;;
43540;SDS011;29549;40.386;-3.710;2023-02-10T18:35:22;8.88;;;4.70;;
43540;SDS011;29549;40.386;-3.710;2023-02-10T18:45:23;8.55;;;3.85;;
43540;SDS011;29549;40.386;-3.710;2023-02-10T18:55:25;9.23;;;4.43;;
43540;SDS011;29549;40.386;-3.710;2023-02-10T19:05:27;7.75;;;3.90;;
43540;SDS011;29549;40.386;-3.710;2023-02-10T19:15:28;6.43;;;4.20;;
43540;SDS011;29549;40.386;-3.710;2023-02-10T19:25:30;8.63;;;4.85;;
43540;SDS011;29549;40.386;-3.710;2023-02-10T19:35:32;7.93;;;5.25;;
43540;SDS011;29549;40.386;-3.710;2023-02-10T19:45:36;9.60;;;5.55;;
43540;SDS011;29549;40.386;-3.710;2023-02-10T19:55:38;15.65;;;8.70;;
43540;SDS011;29549;40.386;-3.710;2023-02-10T20:05:39;14.85;;;8.52;;
43540;SDS011;29549;40.386;-3.710;2023-02-10T20:15:41;11.18;;;7.40;;
43540;SDS011;29549;40.386;-3.710;2023-02-10T20:25:43;11.73;;;6.78;;
43540;SDS011;29549;40.386;-3.710;2023-02-10T20:35:45;12.45;;;7.28;;
43540;SDS011;29549;40.386;-3.710;2023-02-10T20:45:47;16.88;;;10.07;;
43540;SDS011;29549;40.386;-3.710;2023-02-10T20:55:49;17.17;;;10.93;;
43540;SDS011;29549;40.386;-3.710;2023-02-10T21:05:50;16.00;;;9.95;;
43540;SDS011;29549;40.386;-3.710;2023-02-10T21:15:53;13.23;;;8.07;;
43540;SDS011;29549;40.386;-3.710;2023-02-10T21:25:56;13.90;;;8.05;;
43540;SDS011;29549;40.386;-3.710;2023-02-10T21:35:59;12.32;;;6.80;;
43540;SDS011;29549;40.386;-3.710;2023-02-10T21:46:01;12.18;;;7.10;;
43540;SDS011;29549;40.386;-3.710;2023-02-10T21:56:04;7.57;;;5.05;;
43540;SDS011;29549;40.386;-3.710;2023-02-10T22:06:06;9.50;;;4.70;;
43540;SDS011;29549;40.386;-3.710;2023-02-10T22:16:10;10.80;;;5.20;;
43540;SDS011;29549;40.386;-3.710;2023-02-10T22:26:16;7.07;;;3.97;;
43540;SDS011;29549;40.386;-3.710;2023-02-10T22:36:19;9.27;;;4.45;;
43540;SDS011;29549;40.386;-3.710;2023-02-10T22:46:21;6.45;;;4.05;;
43540;SDS011;29549;40.386;-3.710;2023-02-10T22:56:24;6.25;;;3.45;;
43540;SDS011;29549;40.386;-3.710;2023-02-10T23:06:26;7.25;;;3.80;;
43540;SDS011;29549;40.386;-3.710;2023-02-10T23:16:28;8.00;;;4.05;;
43540;SDS011;29549;40.386;-3.710;2023-02-10T23:26:31;6.63;;;3.80;;
43540;SDS011;29549;40.386;-3.710;2023-02-10T23:36:34;7.68;;;3.78;;
43540;SDS011;29549;40.386;-3.710;2023-02-10T23:46:35;5.40;;;3.60;;
43540;SDS011;29549;40.386;-3.710;2023-02-10T23:56:37;4.38;;;3.60;;
